Time;durP1;ratioP1;P1;durP2;ratioP2;P2;SDS_P1;SDS_P2;PMS_P1;PMS_P2;Temp;Humidity;BMP_temperature;BMP_pressure;BME280_temperature;BME280_humidity;BME280_pressure;Samples;Min_cycle;Max_cycle;Signal;HPM_P1;HPM_P2
2021/07/09 00:02:39;;;;;;;5.03;3.42;;;17.70;95.10;;;;;;4999480;28;20456;-73
2021/07/09 00:05:05;;;;;;;14.45;3.85;;;17.70;95.10;;;;;;4999555;28;20057;-73
2021/07/09 00:07:30;;;;;;;4.82;2.67;;;17.70;95.10;;;;;;4999384;28;20033;-73
2021/07/09 00:09:56;;;;;;;7.90;2.47;;;17.70;95.10;;;;;;5014396;28;20100;-73
2021/07/09 00:12:21;;;;;;;6.97;2.97;;;17.70;95.10;;;;;;5005061;28;20018;-73
2021/07/09 00:14:47;;;;;;;5.95;3.97;;;17.70;95.30;;;;;;4998576;28;20049;-73
2021/07/09 00:17:13;;;;;;;9.10;3.60;;;17.80;95.20;;;;;;4999956;28;20069;-73
2021/07/09 00:19:38;;;;;;;4.85;3.00;;;17.80;95.10;;;;;;4997812;28;20031;-73
2021/07/09 00:22:04;;;;;;;4.82;2.88;;;17.80;95.10;;;;;;4999998;28;20030;-73
2021/07/09 00:24:30;;;;;;;6.47;3.00;;;17.80;95.10;;;;;;4999664;28;20478;-73
2021/07/09 00:26:55;;;;;;;4.22;3.13;;;17.80;95.10;;;;;;4999865;28;20393;-73
2021/07/09 00:29:21;;;;;;;4.82;3.08;;;17.70;95.20;;;;;;4997726;28;20038;-73
2021/07/09 00:31:47;;;;;;;7.72;3.33;;;17.70;95.10;;;;;;4998160;28;20530;-73
2021/07/09 00:34:12;;;;;;;5.47;2.92;;;17.70;95.20;;;;;;5000097;28;20029;-73
2021/07/09 00:36:38;;;;;;;3.15;2.75;;;17.70;95.30;;;;;;4999018;28;20029;-73
2021/07/09 00:39:07;;;;;;;8.18;3.33;;;17.70;95.30;;;;;;4998110;28;20428;-73
2021/07/09 00:41:33;;;;;;;5.32;3.38;;;17.60;95.40;;;;;;4998109;28;20034;-73
2021/07/09 00:43:59;;;;;;;5.72;3.05;;;17.60;95.50;;;;;;4999281;28;20485;-73
2021/07/09 00:46:38;;;;;;;5.95;3.65;;;17.50;95.70;;;;;;5000049;28;20474;-73
2021/07/09 00:49:06;;;;;;;5.68;3.22;;;17.40;95.70;;;;;;5002092;28;20022;-73
2021/07/09 00:51:31;;;;;;;4.05;3.40;;;17.40;95.80;;;;;;5003202;28;20026;-73
2021/07/09 00:53:57;;;;;;;5.32;2.90;;;17.40;96.10;;;;;;5003281;28;20030;-73
2021/07/09 00:56:23;;;;;;;5.80;3.35;;;17.30;96.10;;;;;;5004025;28;20018;-73
2021/07/09 00:58:51;;;;;;;4.28;3.22;;;17.30;96.20;;;;;;5018446;28;20037;-73
2021/07/09 01:01:17;;;;;;;7.70;3.95;;;17.30;96.20;;;;;;5002253;28;20062;-73
2021/07/09 01:03:43;;;;;;;7.45;3.70;;;17.30;96.30;;;;;;5003185;28;20077;-73
2021/07/09 01:06:08;;;;;;;5.68;3.38;;;17.30;96.20;;;;;;5003595;28;20022;-73
2021/07/09 01:08:34;;;;;;;6.15;3.92;;;17.30;96.20;;;;;;5001271;28;20727;-73
2021/07/09 01:11:00;;;;;;;4.13;3.30;;;17.30;96.20;;;;;;5002812;28;20112;-73
2021/07/09 01:13:25;;;;;;;6.85;3.65;;;17.40;96.20;;;;;;5003214;28;20026;-73
2021/07/09 01:15:51;;;;;;;4.03;3.55;;;17.40;96.20;;;;;;5002244;28;20030;-73
2021/07/09 01:18:16;;;;;;;4.50;3.83;;;17.40;96.30;;;;;;5000651;28;21848;-73
2021/07/09 01:20:42;;;;;;;3.88;3.53;;;17.40;96.30;;;;;;5018669;28;20029;-73
2021/07/09 01:23:09;;;;;;;4.32;3.90;;;17.40;96.30;;;;;;5001056;28;20030;-73
2021/07/09 01:25:35;;;;;;;5.30;4.07;;;17.30;96.30;;;;;;5001053;28;20066;-73
2021/07/09 01:28:06;;;;;;;6.25;4.47;;;17.40;96.30;;;;;;5002055;28;20018;-73
2021/07/09 01:30:34;;;;;;;4.75;4.35;;;17.40;96.40;;;;;;5002174;28;20033;-73
2021/07/09 01:32:59;;;;;;;6.20;4.68;;;17.40;96.50;;;;;;5002196;28;20042;-73
2021/07/09 01:35:27;;;;;;;6.00;5.30;;;17.40;96.50;;;;;;5002318;28;20100;-73
2021/07/09 01:38:07;;;;;;;5.60;4.78;;;17.40;96.60;;;;;;5000879;28;20796;-73
2021/07/09 01:40:34;;;;;;;6.63;5.43;;;17.40;96.60;;;;;;5002278;28;20033;-73
2021/07/09 01:43:01;;;;;;;7.45;4.82;;;17.40;96.60;;;;;;5001828;28;20052;-73
2021/07/09 01:45:27;;;;;;;8.48;4.45;;;17.40;96.70;;;;;;5002170;28;20461;-73
2021/07/09 01:47:54;;;;;;;5.63;5.13;;;17.50;96.70;;;;;;5002740;28;20113;-73
2021/07/09 01:50:20;;;;;;;5.45;4.95;;;17.50;96.90;;;;;;5002380;28;20053;-73
2021/07/09 01:52:46;;;;;;;10.55;5.40;;;17.50;96.80;;;;;;5001003;28;20104;-73
2021/07/09 01:55:12;;;;;;;5.40;4.93;;;17.50;96.80;;;;;;5002998;28;20511;-73
2021/07/09 01:57:39;;;;;;;7.05;4.88;;;17.50;96.90;;;;;;5001550;28;20025;-73
2021/07/09 02:00:10;;;;;;;5.78;5.10;;;17.50;96.90;;;;;;5000562;28;20396;-73
2021/07/09 02:02:36;;;;;;;11.25;5.25;;;17.50;96.90;;;;;;5002219;28;20026;-73
2021/07/09 02:05:06;;;;;;;7.85;4.60;;;17.50;96.90;;;;;;5002387;28;20034;-73
2021/07/09 02:07:32;;;;;;;5.53;5.03;;;17.50;96.90;;;;;;5001524;28;20027;-73
2021/07/09 02:09:58;;;;;;;8.55;4.90;;;17.50;97.00;;;;;;5001000;28;20473;-73
2021/07/09 02:12:25;;;;;;;8.90;5.45;;;17.50;97.10;;;;;;5000833;28;20018;-73
2021/07/09 02:14:52;;;;;;;7.82;5.85;;;17.40;97.00;;;;;;5000261;28;20097;-73
2021/07/09 02:17:19;;;;;;;11.52;6.63;;;17.40;97.20;;;;;;5016256;28;20048;-73
2021/07/09 02:19:47;;;;;;;8.43;5.82;;;17.40;97.20;;;;;;5001322;28;20383;-73
2021/07/09 02:22:14;;;;;;;7.78;5.93;;;17.30;97.30;;;;;;4999326;28;20742;-73
2021/07/09 02:24:41;;;;;;;11.43;5.47;;;17.30;97.30;;;;;;5001682;28;20109;-73
2021/07/09 02:27:07;;;;;;;9.65;5.57;;;17.30;97.30;;;;;;5000890;28;20508;-73
2021/07/09 02:29:34;;;;;;;8.65;5.65;;;17.30;97.40;;;;;;5001346;28;20108;-73
2021/07/09 02:32:00;;;;;;;15.45;6.88;;;17.20;97.50;;;;;;5000563;28;20048;-73
2021/07/09 02:34:27;;;;;;;10.55;5.72;;;17.20;97.40;;;;;;5001336;28;20053;-73
2021/07/09 02:36:53;;;;;;;11.60;5.88;;;17.20;97.60;;;;;;5001629;28;20038;-73
2021/07/09 02:39:19;;;;;;;7.93;5.43;;;17.20;97.60;;;;;;5001258;28;20775;-73
2021/07/09 02:41:44;;;;;;;10.60;6.55;;;17.20;97.50;;;;;;5001504;28;20033;-73
2021/07/09 02:44:10;;;;;;;14.40;5.82;;;17.20;97.60;;;;;;5000991;28;20042;-73
2021/07/09 02:46:35;;;;;;;9.93;7.03;;;17.20;97.60;;;;;;5000973;28;20389;-73
2021/07/09 02:49:01;;;;;;;9.15;6.20;;;17.20;97.80;;;;;;5001453;28;20075;-73
2021/07/09 02:51:26;;;;;;;15.38;6.00;;;17.10;97.70;;;;;;5000845;28;20489;-73
2021/07/09 02:53:52;;;;;;;7.88;5.55;;;17.10;97.90;;;;;;5000161;28;20033;-73
2021/07/09 02:56:17;;;;;;;13.55;6.80;;;17.10;97.80;;;;;;5001119;28;20037;-73
2021/07/09 02:58:43;;;;;;;10.13;6.35;;;17.10;98.00;;;;;;5002132;28;20566;-73
2021/07/09 03:01:08;;;;;;;7.88;6.10;;;17.10;97.90;;;;;;5016589;28;20024;-73
2021/07/09 03:03:34;;;;;;;10.25;6.40;;;17.10;97.90;;;;;;5000759;28;20541;-73
2021/07/09 03:05:59;;;;;;;9.77;6.03;;;17.10;97.80;;;;;;4999989;28;20022;-73
2021/07/09 03:08:25;;;;;;;11.90;6.97;;;17.10;97.80;;;;;;5000360;28;20049;-73
2021/07/09 03:10:50;;;;;;;6.50;5.90;;;17.10;97.80;;;;;;4998437;28;20030;-73
2021/07/09 03:13:16;;;;;;;6.10;5.45;;;17.20;97.90;;;;;;4999956;28;20031;-73
2021/07/09 03:15:41;;;;;;;8.65;6.43;;;17.10;97.80;;;;;;4999443;28;20030;-73
2021/07/09 03:18:07;;;;;;;10.55;5.57;;;17.10;97.80;;;;;;4999437;28;20032;-73
2021/07/09 03:20:32;;;;;;;10.68;7.07;;;17.10;98.00;;;;;;5000734;28;20488;-73
2021/07/09 03:22:58;;;;;;;9.70;5.72;;;17.10;98.00;;;;;;4998246;28;20508;-73
2021/07/09 03:25:24;;;;;;;10.82;6.43;;;17.00;98.00;;;;;;5000839;28;20030;-73
2021/07/09 03:27:49;;;;;;;14.55;7.50;;;17.00;98.00;;;;;;4999114;28;20088;-73
2021/07/09 03:30:15;;;;;;;11.40;7.03;;;17.00;98.10;;;;;;5000627;28;20054;-73
2021/07/09 03:32:41;;;;;;;16.38;8.07;;;17.00;98.10;;;;;;5000676;28;20030;-73
2021/07/09 03:35:08;;;;;;;11.82;6.72;;;17.00;98.20;;;;;;5014905;28;20349;-73
2021/07/09 03:37:34;;;;;;;9.32;7.30;;;16.90;98.20;;;;;;4999372;28;20033;-73
2021/07/09 03:39:59;;;;;;;10.93;7.75;;;16.90;98.20;;;;;;5001149;28;20041;-73
2021/07/09 03:42:25;;;;;;;14.20;6.68;;;16.90;98.20;;;;;;5000278;28;20022;-73
2021/07/09 03:44:50;;;;;;;9.68;7.55;;;16.90;98.30;;;;;;5000439;28;20101;-73
2021/07/09 03:47:16;;;;;;;10.13;6.47;;;16.90;98.40;;;;;;4998601;28;20073;-73
2021/07/09 03:49:41;;;;;;;10.32;7.82;;;16.90;98.40;;;;;;5014659;28;20026;-73
2021/07/09 03:52:07;;;;;;;9.95;6.90;;;16.90;98.40;;;;;;5015447;28;20814;-73
2021/07/09 03:54:34;;;;;;;10.20;7.18;;;16.90;98.40;;;;;;5000575;28;20492;-73
2021/07/09 03:57:00;;;;;;;8.82;6.70;;;16.90;98.40;;;;;;5000860;28;20121;-72
2021/07/09 03:59:25;;;;;;;11.93;7.65;;;16.90;98.40;;;;;;4998169;28;20164;-73
2021/07/09 04:01:51;;;;;;;10.82;6.80;;;16.90;98.50;;;;;;5000180;28;20096;-73
2021/07/09 04:04:16;;;;;;;11.18;6.35;;;16.90;98.50;;;;;;4999181;28;20031;-73
2021/07/09 04:06:42;;;;;;;9.65;6.60;;;16.90;98.50;;;;;;4999431;28;20034;-73
2021/07/09 04:09:08;;;;;;;10.80;7.20;;;16.90;98.50;;;;;;4998968;28;20137;-73
2021/07/09 04:11:33;;;;;;;8.68;6.80;;;16.90;98.50;;;;;;4995427;28;20113;-74
2021/07/09 04:13:59;;;;;;;9.98;7.35;;;17.00;98.50;;;;;;4992031;28;20377;-74
2021/07/09 04:16:24;;;;;;;7.15;6.28;;;17.00;98.50;;;;;;4995688;28;20113;-73
2021/07/09 04:18:50;;;;;;;8.80;8.00;;;17.00;98.50;;;;;;5000093;28;20683;-72
2021/07/09 04:21:15;;;;;;;12.70;7.65;;;17.00;98.50;;;;;;4999605;28;20038;-73
2021/07/09 04:23:41;;;;;;;14.73;9.15;;;16.90;98.50;;;;;;5002617;28;20123;-72
2021/07/09 04:26:07;;;;;;;13.10;8.75;;;16.90;98.60;;;;;;5003364;28;20026;-72
2021/07/09 04:28:32;;;;;;;9.82;7.82;;;16.90;98.70;;;;;;5017803;28;20049;-72
2021/07/09 04:30:58;;;;;;;10.75;7.47;;;16.90;98.70;;;;;;5017687;28;20389;-74
2021/07/09 04:33:24;;;;;;;11.10;7.97;;;16.90;98.70;;;;;;5002618;28;20026;-73
2021/07/09 04:35:50;;;;;;;12.50;7.57;;;17.00;98.70;;;;;;5018237;28;20314;-73
2021/07/09 04:38:16;;;;;;;11.23;8.07;;;17.00;98.80;;;;;;5003625;28;20418;-74
2021/07/09 04:40:42;;;;;;;10.20;7.35;;;17.00;98.80;;;;;;5002250;28;20105;-73
2021/07/09 04:43:07;;;;;;;12.20;8.40;;;17.00;98.70;;;;;;5003398;28;20108;-74
2021/07/09 04:45:33;;;;;;;8.68;7.75;;;17.00;98.70;;;;;;5002744;28;20405;-74
2021/07/09 04:47:59;;;;;;;10.25;8.98;;;17.10;98.70;;;;;;5003166;28;20105;-73
2021/07/09 04:50:25;;;;;;;10.93;8.75;;;17.10;98.70;;;;;;5002917;28;20018;-74
2021/07/09 04:52:50;;;;;;;10.70;8.00;;;17.10;98.60;;;;;;5003638;28;20026;-74
2021/07/09 04:55:16;;;;;;;12.02;8.85;;;17.10;98.60;;;;;;5003688;28;20123;-73
2021/07/09 04:57:42;;;;;;;9.90;8.90;;;17.10;98.60;;;;;;5003833;28;20572;-74
2021/07/09 05:00:08;;;;;;;14.07;9.23;;;17.10;98.60;;;;;;5002346;28;20025;-73
2021/07/09 05:02:39;;;;;;;13.23;8.88;;;17.10;98.50;;;;;;5002403;28;20474;-73
2021/07/09 05:05:09;;;;;;;14.15;8.85;;;17.20;98.50;;;;;;5000863;28;20030;-73
2021/07/09 05:07:35;;;;;;;9.02;8.13;;;17.20;98.50;;;;;;5001659;28;20622;-74
2021/07/09 05:10:01;;;;;;;12.25;7.70;;;17.20;98.50;;;;;;5002199;28;20034;-74
2021/07/09 05:12:26;;;;;;;13.98;8.68;;;17.30;98.50;;;;;;5000469;28;20033;-74
2021/07/09 05:14:52;;;;;;;11.10;8.70;;;17.30;98.50;;;;;;5002572;28;20144;-73
2021/07/09 05:17:17;;;;;;;10.93;8.65;;;17.30;98.40;;;;;;5003116;28;20500;-74
2021/07/09 05:19:43;;;;;;;9.82;8.90;;;17.40;98.40;;;;;;5002129;28;20038;-74
2021/07/09 05:22:10;;;;;;;9.88;8.88;;;17.40;98.20;;;;;;5002138;28;20037;-71
2021/07/09 05:24:37;;;;;;;12.77;8.50;;;17.40;98.20;;;;;;4999450;28;20033;-71
2021/07/09 05:27:03;;;;;;;13.52;8.93;;;17.40;98.10;;;;;;5001995;28;20029;-71
2021/07/09 05:29:29;;;;;;;13.07;9.75;;;17.50;98.10;;;;;;5001668;28;20023;-71
2021/07/09 05:31:54;;;;;;;12.52;8.77;;;17.50;98.00;;;;;;5001762;28;20030;-71
2021/07/09 05:34:20;;;;;;;17.73;9.65;;;17.60;97.90;;;;;;5001974;28;20113;-71
2021/07/09 05:36:45;;;;;;;11.23;8.73;;;17.70;97.80;;;;;;5001310;28;20113;-72
2021/07/09 05:39:13;;;;;;;10.00;7.65;;;17.70;97.70;;;;;;5000275;28;20034;-77
2021/07/09 05:41:38;;;;;;;12.18;8.95;;;17.80;98.00;;;;;;5000842;28;20026;-77
2021/07/09 05:44:04;;;;;;;10.38;7.55;;;17.90;97.60;;;;;;5001988;28;20028;-77
2021/07/09 05:46:31;;;;;;;7.43;6.70;;;18.10;97.40;;;;;;4999873;28;20117;-77
2021/07/09 05:48:56;;;;;;;13.13;6.88;;;18.30;97.30;;;;;;4999406;28;20117;-77
2021/07/09 05:51:22;;;;;;;9.07;7.85;;;18.50;97.10;;;;;;4999773;28;20452;-77
2021/07/09 05:53:47;;;;;;;11.45;8.73;;;18.50;96.70;;;;;;5001974;28;20030;-77
2021/07/09 05:56:13;;;;;;;12.55;9.50;;;18.50;96.60;;;;;;4999472;28;20551;-77
2021/07/09 05:58:38;;;;;;;11.55;8.90;;;18.40;96.50;;;;;;5013475;28;20095;-81
2021/07/09 06:01:04;;;;;;;14.32;8.52;;;18.30;96.60;;;;;;5007970;28;20025;-81
2021/07/09 06:03:29;;;;;;;13.07;9.07;;;18.30;96.80;;;;;;4999221;28;20034;-77
2021/07/09 06:05:55;;;;;;;10.23;9.30;;;18.30;96.80;;;;;;5000616;28;20489;-75
2021/07/09 06:08:21;;;;;;;13.60;10.25;;;18.40;96.60;;;;;;4999048;28;20037;-77
2021/07/09 06:10:46;;;;;;;12.00;9.27;;;18.40;96.60;;;;;;5006457;28;20050;-78
2021/07/09 06:13:12;;;;;;;14.00;8.95;;;18.40;96.60;;;;;;5001446;28;20414;-78
2021/07/09 06:15:38;;;;;;;10.25;8.50;;;18.30;96.60;;;;;;5007858;28;20096;-80
2021/07/09 06:18:03;;;;;;;10.75;8.00;;;18.40;96.70;;;;;;4999870;28;20141;-77
2021/07/09 06:20:29;;;;;;;7.57;5.80;;;18.50;96.60;;;;;;5015590;28;20022;-77
2021/07/09 06:22:54;;;;;;;10.57;8.38;;;18.50;96.50;;;;;;5001707;28;20030;-76
2021/07/09 06:25:20;;;;;;;11.32;8.80;;;18.70;96.30;;;;;;5002754;28;20026;-78
2021/07/09 06:27:47;;;;;;;12.98;9.73;;;18.70;95.90;;;;;;5001511;28;20069;-78
2021/07/09 06:30:13;;;;;;;11.65;9.35;;;18.70;96.00;;;;;;5000171;28;20362;-80
2021/07/09 06:32:39;;;;;;;11.20;9.07;;;18.80;96.10;;;;;;4999608;28;20030;-79
2021/07/09 06:35:07;;;;;;;10.25;8.38;;;18.80;95.80;;;;;;4999512;28;20386;-79
2021/07/09 06:37:33;;;;;;;10.07;8.90;;;18.70;96.00;;;;;;5001889;28;20057;-77
2021/07/09 06:39:59;;;;;;;11.50;7.03;;;18.90;96.00;;;;;;5000628;28;20030;-79
2021/07/09 06:42:24;;;;;;;13.70;7.45;;;18.90;95.90;;;;;;5005429;28;20027;-80
2021/07/09 06:44:50;;;;;;;10.43;9.30;;;19.00;95.90;;;;;;5014981;28;20128;-79
2021/07/09 06:47:15;;;;;;;13.57;9.15;;;19.00;95.60;;;;;;5000252;28;20105;-79
2021/07/09 06:52:45;;;;;;;11.65;8.10;;;18.90;95.90;;;;;;4971202;28;20053;-78
2021/07/09 06:55:12;;;;;;;13.02;10.23;;;19.00;95.80;;;;;;4999362;28;20113;-79
2021/07/09 06:57:38;;;;;;;12.55;9.32;;;19.10;95.90;;;;;;4998970;28;20054;-79
2021/07/09 07:00:45;;;;;;;10.50;9.45;;;19.00;95.90;;;;;;5000256;28;20014;-79
2021/07/09 07:03:31;;;;;;;18.90;11.13;;;19.00;96.00;;;;;;4998142;28;20470;-82
2021/07/09 07:05:57;;;;;;;12.70;9.93;;;19.00;96.00;;;;;;4999370;28;20272;-78
2021/07/09 07:08:26;;;;;;;12.68;8.55;;;19.00;96.10;;;;;;5000201;28;20044;-75
2021/07/09 07:10:53;;;;;;;11.15;7.72;;;19.00;96.20;;;;;;4999110;28;20034;-76
2021/07/09 07:13:20;;;;;;;12.50;9.82;;;19.10;96.20;;;;;;5000446;28;20033;-76
2021/07/09 07:15:45;;;;;;;13.25;11.00;;;19.10;96.20;;;;;;5000728;28;20022;-77
2021/07/09 07:18:23;;;;;;;12.23;9.80;;;19.20;96.20;;;;;;5000432;28;20469;-78
2021/07/09 07:20:50;;;;;;;11.48;7.05;;;19.20;96.30;;;;;;5000446;28;20164;-77
2021/07/09 07:26:28;;;;;;;11.77;9.55;;;19.30;96.30;;;;;;4998575;28;20491;-77
2021/07/09 07:28:54;;;;;;;11.68;8.93;;;19.40;96.30;;;;;;5000829;28;20100;-76
2021/07/09 07:31:19;;;;;;;10.38;8.90;;;19.40;96.40;;;;;;4999489;28;20030;-78
2021/07/09 07:33:45;;;;;;;12.13;9.45;;;19.40;96.20;;;;;;4999260;28;20030;-77
2021/07/09 07:36:12;;;;;;;10.07;8.88;;;19.40;96.20;;;;;;4997393;28;20537;-78
2021/07/09 07:38:37;;;;;;;13.68;9.90;;;19.50;96.20;;;;;;4998036;28;20029;-76
2021/07/09 07:41:03;;;;;;;11.80;8.40;;;19.50;96.20;;;;;;4998617;28;20022;-78
2021/07/09 07:43:28;;;;;;;11.38;9.38;;;19.50;96.20;;;;;;4999180;28;20097;-76
2021/07/09 07:45:55;;;;;;;9.95;8.20;;;19.40;96.20;;;;;;4999714;28;20037;-77
2021/07/09 07:48:21;;;;;;;10.55;8.18;;;19.40;96.20;;;;;;4996761;28;20037;-76
2021/07/09 07:50:48;;;;;;;10.05;8.75;;;19.40;96.10;;;;;;5016961;28;20402;-76
2021/07/09 07:53:13;;;;;;;9.60;8.70;;;19.50;96.20;;;;;;4999501;28;20014;-78
2021/07/09 07:55:39;;;;;;;11.55;8.32;;;19.40;96.10;;;;;;5000024;28;20049;-78
2021/07/09 07:58:04;;;;;;;10.30;8.57;;;19.50;96.30;;;;;;5001534;28;20036;-77
2021/07/09 08:00:30;;;;;;;10.82;8.15;;;19.50;96.20;;;;;;5003919;28;20030;-75
2021/07/09 08:02:55;;;;;;;9.13;8.32;;;19.50;96.20;;;;;;5005623;28;20037;-79
2021/07/09 08:05:26;;;;;;;9.48;7.63;;;19.50;96.10;;;;;;5003721;28;20193;-77
2021/07/09 08:07:51;;;;;;;9.75;7.15;;;19.60;95.90;;;;;;5006448;28;20105;-78
2021/07/09 08:10:17;;;;;;;9.02;6.65;;;19.60;95.70;;;;;;5019949;28;20509;-77
2021/07/09 08:12:43;;;;;;;8.52;6.88;;;19.60;95.50;;;;;;5006009;28;20026;-76
2021/07/09 08:15:09;;;;;;;9.45;6.40;;;19.60;95.50;;;;;;5005376;28;20034;-78
2021/07/09 08:17:34;;;;;;;7.85;6.93;;;19.60;95.30;;;;;;5004183;28;20022;-78
2021/07/09 08:20:00;;;;;;;7.72;6.35;;;19.60;95.00;;;;;;5009824;28;20041;-76
2021/07/09 08:22:25;;;;;;;7.78;7.07;;;19.50;95.30;;;;;;5003903;28;20018;-78
2021/07/09 08:24:51;;;;;;;8.00;7.22;;;19.60;95.50;;;;;;5002373;28;20076;-79
2021/07/09 08:27:16;;;;;;;6.45;5.85;;;19.60;95.50;;;;;;5003857;28;20030;-77
2021/07/09 08:29:42;;;;;;;8.65;6.10;;;19.60;94.80;;;;;;5005148;28;20036;-78
2021/07/09 08:32:13;;;;;;;8.07;6.97;;;19.60;95.00;;;;;;5010596;28;20054;-78
2021/07/09 08:34:38;;;;;;;7.05;6.35;;;19.60;95.00;;;;;;5004954;28;20069;-79
2021/07/09 08:37:04;;;;;;;9.57;7.13;;;19.60;95.10;;;;;;5002347;28;20034;-77
2021/07/09 08:39:31;;;;;;;9.40;7.45;;;19.60;95.20;;;;;;5004111;28;20065;-82
2021/07/09 08:42:17;;;;;;;9.70;7.47;;;19.60;95.20;;;;;;5006465;28;20030;-82
2021/07/09 08:44:42;;;;;;;10.43;8.02;;;19.50;95.40;;;;;;5010965;28;20040;-82
2021/07/09 08:47:08;;;;;;;9.70;8.23;;;19.50;95.60;;;;;;5001750;28;20655;-80
2021/07/09 08:49:34;;;;;;;11.90;6.53;;;19.40;95.70;;;;;;5003363;28;20029;-78
2021/07/09 08:52:00;;;;;;;5.75;4.78;;;19.40;95.50;;;;;;5001533;28;20031;-81
2021/07/09 08:54:26;;;;;;;6.38;5.70;;;19.40;95.20;;;;;;5007937;28;20101;-82
2021/07/09 08:56:53;;;;;;;5.40;4.97;;;19.30;95.10;;;;;;5000160;28;20030;-80
2021/07/09 08:59:21;;;;;;;8.73;5.43;;;19.30;95.20;;;;;;5003259;28;20034;-81
2021/07/09 09:01:51;;;;;;;8.30;5.72;;;19.30;95.70;;;;;;4986728;28;20050;-79
2021/07/09 09:04:36;;;;;;;11.70;4.82;;;19.30;95.70;;;;;;5004951;28;20575;-80
2021/07/09 09:07:11;;;;;;;6.75;5.38;;;19.30;95.50;;;;;;5001948;28;20117;-83
2021/07/09 09:09:40;;;;;;;7.50;5.35;;;19.40;95.80;;;;;;5003628;28;20049;-72
2021/07/09 09:12:14;;;;;;;6.90;5.20;;;19.40;95.60;;;;;;5003381;28;20026;-72
2021/07/09 09:14:50;;;;;;;5.18;4.70;;;19.40;95.90;;;;;;5002005;28;20060;-72
2021/07/09 09:17:27;;;;;;;8.75;4.47;;;19.40;95.70;;;;;;5019764;28;20022;-73
2021/07/09 09:20:11;;;;;;;6.60;4.82;;;19.40;95.80;;;;;;5003274;28;20049;-74
2021/07/09 09:22:49;;;;;;;5.57;4.20;;;19.40;95.70;;;;;;5002321;28;20204;-76
2021/07/09 09:25:17;;;;;;;6.18;5.38;;;19.30;95.40;;;;;;5002640;28;20066;-73
2021/07/09 09:27:43;;;;;;;5.15;4.75;;;19.30;95.20;;;;;;5003031;28;20059;-75
2021/07/09 09:30:11;;;;;;;5.53;4.95;;;19.30;95.80;;;;;;5002757;28;20263;-74
2021/07/09 09:32:50;;;;;;;5.95;4.40;;;19.30;95.90;;;;;;5002111;28;20405;-73
2021/07/09 09:35:32;;;;;;;8.10;4.97;;;19.30;95.60;;;;;;5002386;28;20034;-74
2021/07/09 09:38:18;;;;;;;6.78;6.07;;;19.40;95.80;;;;;;5000429;28;20026;-77
2021/07/09 09:40:46;;;;;;;5.97;5.47;;;19.40;95.80;;;;;;5003608;28;20030;-75
2021/07/09 09:43:15;;;;;;;8.77;5.72;;;19.40;95.40;;;;;;5002277;28;20591;-74
2021/07/09 09:45:41;;;;;;;9.38;5.70;;;19.40;95.60;;;;;;5001839;28;20034;-74
2021/07/09 09:48:12;;;;;;;12.02;5.40;;;19.40;94.90;;;;;;5000515;28;20068;-76
2021/07/09 09:50:47;;;;;;;6.82;5.55;;;19.40;95.20;;;;;;5019440;28;20038;-73
2021/07/09 09:53:13;;;;;;;5.55;4.97;;;19.40;95.30;;;;;;5002134;28;20050;-75
2021/07/09 09:55:39;;;;;;;7.38;5.57;;;19.40;95.10;;;;;;5000375;28;20561;-73
2021/07/09 09:58:16;;;;;;;6.85;4.95;;;19.40;94.90;;;;;;5000822;28;20394;-75
2021/07/09 10:00:45;;;;;;;6.80;5.85;;;19.30;94.60;;;;;;5002519;28;20029;-76
2021/07/09 10:03:11;;;;;;;8.25;7.00;;;19.30;94.80;;;;;;5001543;28;20069;-74
2021/07/09 10:05:42;;;;;;;12.50;6.85;;;19.30;95.30;;;;;;5002536;28;20068;-75
2021/07/09 10:08:15;;;;;;;6.05;5.45;;;19.30;95.20;;;;;;5000746;28;20030;-74
2021/07/09 10:10:42;;;;;;;7.00;6.40;;;19.30;94.60;;;;;;5003054;28;20096;-75
2021/07/09 10:13:09;;;;;;;6.13;5.10;;;19.30;95.00;;;;;;5000831;28;20069;-74
2021/07/09 10:15:38;;;;;;;7.35;6.47;;;19.30;94.60;;;;;;5002298;28;20033;-74
2021/07/09 10:18:04;;;;;;;6.32;5.38;;;19.40;95.00;;;;;;5000705;28;20132;-74
2021/07/09 10:20:30;;;;;;;7.13;6.53;;;19.40;94.60;;;;;;5001908;28;20109;-74
2021/07/09 10:22:59;;;;;;;9.65;6.28;;;19.40;94.80;;;;;;5015480;28;20057;-73
2021/07/09 10:25:27;;;;;;;9.60;6.40;;;19.40;95.00;;;;;;5000089;28;20033;-74
2021/07/09 10:27:53;;;;;;;8.70;6.97;;;19.40;95.10;;;;;;4999595;28;20026;-74
2021/07/09 10:30:19;;;;;;;7.40;6.80;;;19.30;95.30;;;;;;5000882;28;20182;-74
2021/07/09 10:32:48;;;;;;;5.72;5.22;;;19.30;95.10;;;;;;5000792;28;20477;-74
2021/07/09 10:35:35;;;;;;;7.18;6.45;;;19.20;94.50;;;;;;5000760;28;20156;-73
2021/07/09 10:38:17;;;;;;;9.40;7.85;;;19.20;94.50;;;;;;5001473;28;20038;-73
2021/07/09 10:40:43;;;;;;;11.95;8.60;;;19.20;95.40;;;;;;5000534;28;20025;-73
2021/07/09 10:43:10;;;;;;;9.40;8.25;;;19.20;95.70;;;;;;5001496;28;20375;-74
2021/07/09 10:45:37;;;;;;;10.20;7.00;;;19.20;95.60;;;;;;5015488;28;20084;-74
2021/07/09 10:48:03;;;;;;;9.25;6.00;;;19.10;95.40;;;;;;5000337;28;20536;-73
2021/07/09 10:50:46;;;;;;;10.27;7.53;;;19.00;94.80;;;;;;5000294;28;20034;-73
2021/07/09 10:53:11;;;;;;;16.17;8.27;;;19.00;95.40;;;;;;5000561;28;20026;-73
2021/07/09 10:55:41;;;;;;;13.05;8.05;;;19.00;95.90;;;;;;4998726;28;20038;-73
2021/07/09 10:58:07;;;;;;;8.88;7.97;;;19.00;96.00;;;;;;4999585;28;20057;-73
2021/07/09 11:00:49;;;;;;;8.98;8.10;;;19.00;96.40;;;;;;4999554;28;20485;-73
2021/07/09 11:03:26;;;;;;;8.98;8.10;;;19.00;96.10;;;;;;4999104;28;20021;-73
2021/07/09 11:06:00;;;;;;;8.88;6.95;;;19.00;96.40;;;;;;5001687;28;20030;-74
2021/07/09 11:08:32;;;;;;;5.93;5.32;;;19.00;96.00;;;;;;4999002;28;20018;-74
2021/07/09 11:11:09;;;;;;;4.45;4.05;;;18.90;94.40;;;;;;5001581;28;20042;-75
2021/07/09 11:13:48;;;;;;;;;;;18.90;94.40;;;;;;4998551;28;20139;-75
2021/07/09 11:16:32;;;;;;;5.97;5.47;;;18.90;94.80;;;;;;5000798;28;20382;-76
2021/07/09 11:19:02;;;;;;;8.75;6.15;;;18.90;94.70;;;;;;4998402;28;20034;-74
2021/07/09 11:21:30;;;;;;;10.80;7.57;;;18.90;95.00;;;;;;4997998;28;20023;-74
2021/07/09 11:24:09;;;;;;;8.85;7.53;;;18.80;95.50;;;;;;4999311;28;20485;-74
2021/07/09 11:26:37;;;;;;;9.40;6.93;;;18.80;95.80;;;;;;5000609;28;20149;-76
2021/07/09 11:29:25;;;;;;;7.28;6.57;;;18.80;95.80;;;;;;4997746;28;20037;-75
2021/07/09 11:31:53;;;;;;;7.85;7.05;;;18.70;95.80;;;;;;5013842;28;20018;-75
2021/07/09 11:34:19;;;;;;;11.32;7.43;;;18.70;96.10;;;;;;5001138;28;20104;-75
2021/07/09 11:36:52;;;;;;;8.63;5.95;;;18.70;96.40;;;;;;5000267;28;20037;-75
2021/07/09 11:39:21;;;;;;;13.52;7.85;;;18.70;96.40;;;;;;5000243;28;20046;-75
2021/07/09 11:41:53;;;;;;;6.93;6.32;;;18.70;96.60;;;;;;5002725;28;20030;-75
2021/07/09 11:44:40;;;;;;;10.27;6.93;;;18.80;96.20;;;;;;4999762;28;20452;-74
2021/07/09 11:47:06;;;;;;;;;;;18.70;96.10;;;;;;5001598;28;20524;-74
2021/07/09 11:49:34;;;;;;;10.27;7.63;;;18.70;96.30;;;;;;4999596;28;19920;-75
2021/07/09 11:52:06;;;;;;;8.57;6.47;;;18.70;96.40;;;;;;4999922;28;20117;-73
2021/07/09 11:54:38;;;;;;;8.55;6.35;;;18.60;96.50;;;;;;5000303;28;20026;-72
2021/07/09 11:57:15;;;;;;;8.38;6.15;;;18.60;96.50;;;;;;5000507;28;20404;-72
2021/07/09 11:59:43;;;;;;;10.00;7.47;;;18.60;96.70;;;;;;4999431;28;20108;-75
2021/07/09 12:02:14;;;;;;;8.60;7.80;;;18.60;96.90;;;;;;5000865;28;20117;-75
2021/07/09 12:04:54;;;;;;;8.98;8.07;;;18.60;96.80;;;;;;4999177;28;20022;-76
2021/07/09 12:07:27;;;;;;;8.23;7.07;;;18.60;97.20;;;;;;5000317;28;20022;-75
2021/07/09 12:10:07;;;;;;;9.23;7.68;;;18.60;96.80;;;;;;5000064;28;20476;-76
2021/07/09 12:12:35;;;;;;;8.95;7.70;;;18.50;96.80;;;;;;5000097;28;20084;-75
2021/07/09 12:15:09;;;;;;;9.68;8.25;;;18.50;96.90;;;;;;5000536;28;20025;-75
2021/07/09 12:17:50;;;;;;;15.05;9.07;;;18.50;97.10;;;;;;4998174;28;20524;-75
2021/07/09 12:20:18;;;;;;;12.23;9.15;;;18.50;97.10;;;;;;4998692;28;20026;-73
2021/07/09 12:22:55;;;;;;;16.02;9.95;;;18.50;97.10;;;;;;4998821;28;20105;-73
2021/07/09 12:25:24;;;;;;;12.07;10.50;;;18.50;97.40;;;;;;5000683;28;20821;-76
2021/07/09 12:27:52;;;;;;;14.75;10.65;;;18.50;97.50;;;;;;4997578;28;20030;-74
2021/07/09 12:30:20;;;;;;;12.07;10.95;;;18.50;97.70;;;;;;4997813;28;20034;-74
2021/07/09 12:32:47;;;;;;;12.27;10.50;;;18.50;97.70;;;;;;5016251;28;20037;-74
2021/07/09 12:35:13;;;;;;;11.18;9.98;;;18.50;97.70;;;;;;5004809;28;20026;-76
2021/07/09 12:37:40;;;;;;;12.90;11.55;;;18.40;97.70;;;;;;4998770;28;20026;-75
2021/07/09 12:40:17;;;;;;;10.38;9.38;;;18.40;97.70;;;;;;5067026;23;20052;-75
2021/07/09 12:42:48;;;;;;;11.27;9.32;;;18.40;97.60;;;;;;5018199;28;20464;-73
2021/07/09 12:45:13;;;;;;;9.60;8.63;;;18.40;97.50;;;;;;5021557;28;20022;-72
2021/07/09 12:47:50;;;;;;;10.93;6.50;;;18.40;97.40;;;;;;5020418;28;20037;-72
2021/07/09 12:50:26;;;;;;;9.30;7.20;;;18.30;96.80;;;;;;5021377;28;20480;-72
2021/07/09 12:52:51;;;;;;;9.20;7.80;;;18.30;97.10;;;;;;5020235;28;20041;-72
2021/07/09 12:55:34;;;;;;;8.85;8.07;;;18.20;97.00;;;;;;5022627;28;20021;-73